Time;durP1;ratioP1;P1;durP2;ratioP2;P2;SDS_P1;SDS_P2;PMS_P1;PMS_P2;Temp;Humidity;BMP_temperature;BMP_pressure;BME280_temperature;BME280_humidity;BME280_pressure;Samples;Min_cycle;Max_cycle;Signal;HPM_P1;HPM_P2
2023/09/27 00:02:01;;;;;;;8.32;4.10;;;;;;;16.38;100.00;101903.41;5293415;28;20032;-73
2023/09/27 00:04:34;;;;;;;7.75;4.07;;;;;;;16.40;100.00;101904.09;5294525;28;20081;-73
2023/09/27 00:07:06;;;;;;;5.32;3.47;;;;;;;16.36;100.00;101905.34;5297626;28;20032;-73
2023/09/27 00:09:37;;;;;;;4.38;3.90;;;;;;;16.28;100.00;101914.81;5295920;28;20089;-73
2023/09/27 00:12:09;;;;;;;5.82;3.90;;;;;;;16.25;100.00;101912.47;5294729;28;20442;-73
2023/09/27 00:14:40;;;;;;;10.73;4.55;;;;;;;16.22;100.00;101904.00;5295916;28;20384;-73
2023/09/27 00:17:11;;;;;;;5.78;3.97;;;;;;;16.22;100.00;101904.81;5295891;28;20370;-73
2023/09/27 00:19:42;;;;;;;5.68;3.90;;;;;;;16.19;100.00;101907.75;5293484;28;20085;-73
2023/09/27 00:22:13;;;;;;;4.80;3.78;;;;;;;16.20;100.00;101905.94;5295448;28;20063;-73
2023/09/27 00:24:45;;;;;;;4.22;3.47;;;;;;;16.10;100.00;101907.72;5293037;28;20027;-73
2023/09/27 00:27:16;;;;;;;5.82;4.03;;;;;;;16.09;100.00;101909.56;5295406;28;20036;-73
2023/09/27 00:29:48;;;;;;;5.57;3.75;;;;;;;16.12;100.00;101897.88;5296324;28;20366;-73
2023/09/27 00:32:19;;;;;;;5.45;3.83;;;;;;;16.14;100.00;101906.47;5295410;28;20283;-73
2023/09/27 00:34:50;;;;;;;5.47;4.13;;;;;;;16.20;100.00;101898.81;5294127;28;20431;-73
2023/09/27 00:37:21;;;;;;;5.75;4.10;;;;;;;16.11;100.00;101912.06;5293399;28;20794;-73
2023/09/27 00:39:55;;;;;;;11.63;4.28;;;;;;;16.11;100.00;101901.50;5289104;28;20473;-73
2023/09/27 00:42:26;;;;;;;4.78;3.50;;;;;;;16.06;100.00;101899.25;5292085;28;20044;-73
2023/09/27 00:44:57;;;;;;;6.80;4.15;;;;;;;16.00;100.00;101898.00;5293799;28;20038;-73
2023/09/27 00:47:30;;;;;;;5.13;3.60;;;;;;;16.04;100.00;101901.22;5295435;28;20030;-73
2023/09/27 00:50:02;;;;;;;4.20;3.60;;;;;;;16.00;100.00;101898.00;5295405;28;20103;-73
2023/09/27 00:52:33;;;;;;;6.20;4.03;;;;;;;15.97;100.00;101892.19;5293123;28;20044;-73
2023/09/27 00:55:06;;;;;;;5.40;4.07;;;;;;;16.04;100.00;101888.00;5295615;28;20484;-73
2023/09/27 00:57:38;;;;;;;6.07;4.63;;;;;;;16.03;100.00;101888.97;5295569;28;20035;-73
2023/09/27 01:00:10;;;;;;;6.10;4.57;;;;;;;16.09;100.00;101895.50;5295736;28;20115;-73
2023/09/27 01:02:41;;;;;;;5.43;4.53;;;;;;;16.05;100.00;101885.19;5293672;28;20043;-73
2023/09/27 01:05:13;;;;;;;9.38;5.32;;;;;;;16.04;100.00;101893.28;5295017;28;20032;-73
2023/09/27 01:07:44;;;;;;;6.03;4.57;;;;;;;15.97;100.00;101892.19;5293207;28;20044;-73
2023/09/27 01:10:15;;;;;;;7.50;4.93;;;;;;;15.90;100.00;101885.78;5294817;28;20485;-73
2023/09/27 01:12:47;;;;;;;4.68;3.92;;;;;;;15.91;100.00;101890.94;5293560;28;20548;-73
2023/09/27 01:15:18;;;;;;;5.03;3.95;;;;;;;15.86;100.00;101887.84;5294680;28;20100;-73
2023/09/27 01:17:54;;;;;;;6.13;4.20;;;;;;;15.92;100.00;101883.84;5295143;28;20035;-73
2023/09/27 01:20:27;;;;;;;5.15;4.32;;;;;;;15.74;100.00;101881.88;5294137;28;20063;-73
2023/09/27 01:22:59;;;;;;;6.15;4.75;;;;;;;15.70;100.00;101872.56;5294995;28;20034;-73
2023/09/27 01:25:36;;;;;;;6.28;4.43;;;;;;;15.75;100.00;101859.75;5294679;28;20501;-73
2023/09/27 01:28:10;;;;;;;6.32;4.90;;;;;;;15.78;100.00;101859.50;5291682;28;20051;-73
2023/09/27 01:30:42;;;;;;;7.10;4.53;;;;;;;15.65;100.00;101852.81;5292763;28;20032;-73
2023/09/27 01:33:13;;;;;;;6.10;4.40;;;;;;;15.65;100.00;101852.81;5295286;28;20034;-73
2023/09/27 01:35:45;;;;;;;7.30;4.60;;;;;;;15.66;100.00;101852.69;5295835;28;20031;-73
2023/09/27 01:38:16;;;;;;;5.30;4.60;;;;;;;15.64;100.00;101848.47;5295553;28;20439;-73
2023/09/27 01:40:47;;;;;;;6.50;5.45;;;;;;;15.60;100.00;101847.06;5292755;28;20217;-73
2023/09/27 01:43:19;;;;;;;6.78;5.38;;;;;;;15.61;100.00;101851.38;5293046;28;20031;-73
2023/09/27 01:45:50;;;;;;;8.10;5.22;;;;;;;15.58;100.00;101857.78;5295028;28;20662;-73
2023/09/27 01:48:22;;;;;;;5.85;4.30;;;;;;;15.57;100.00;101859.59;5292334;28;20028;-73
2023/09/27 01:50:53;;;;;;;6.57;4.93;;;;;;;15.55;100.00;101865.97;5293968;28;20036;-73
2023/09/27 01:53:25;;;;;;;7.13;4.43;;;;;;;15.54;100.00;101873.06;5296898;28;20389;-73
2023/09/27 01:55:56;;;;;;;8.13;4.87;;;;;;;15.48;100.00;101865.69;5297558;28;20028;-73
2023/09/27 01:58:28;;;;;;;7.25;5.22;;;;;;;15.45;100.00;101859.84;5298482;28;20024;-73
2023/09/27 02:00:59;;;;;;;5.35;4.72;;;;;;;15.40;100.00;101864.72;5296258;28;20034;-73
2023/09/27 02:03:30;;;;;;;6.35;4.95;;;;;;;15.35;100.00;101862.50;5297092;28;20509;-73
2023/09/27 02:06:01;;;;;;;6.82;4.70;;;;;;;15.35;100.00;101859.03;5299147;28;20043;-72
2023/09/27 02:08:33;;;;;;;5.88;5.07;;;;;;;15.29;100.00;101861.22;5296934;28;20028;-73
2023/09/27 02:11:04;;;;;;;7.13;5.00;;;;;;;15.30;100.00;101865.53;5298862;28;20105;-71
2023/09/27 02:13:35;;;;;;;6.93;4.55;;;;;;;15.21;100.00;101858.41;5299481;28;20035;-73
2023/09/27 02:16:06;;;;;;;6.20;5.13;;;;;;;15.23;100.00;101850.38;5296922;28;20085;-73
2023/09/27 02:18:39;;;;;;;8.88;5.30;;;;;;;15.24;100.00;101855.50;5296780;28;20035;-73
2023/09/27 02:21:10;;;;;;;8.95;5.25;;;;;;;15.29;100.00;101861.22;5294549;28;20024;-73
2023/09/27 02:23:41;;;;;;;5.80;5.15;;;;;;;15.25;100.00;101864.28;5298290;28;20032;-73
2023/09/27 02:26:12;;;;;;;6.22;4.75;;;;;;;15.29;100.00;101852.47;5294052;28;20339;-72
2023/09/27 02:28:44;;;;;;;7.07;4.72;;;;;;;15.22;100.00;101859.25;5298174;28;20672;-73
2023/09/27 02:31:15;;;;;;;7.03;4.72;;;;;;;15.23;100.00;101863.59;5298191;28;20032;-73
2023/09/27 02:33:46;;;;;;;5.72;4.82;;;;;;;15.20;100.00;101864.69;5297971;28;20135;-73
2023/09/27 02:36:17;;;;;;;8.77;5.30;;;;;;;15.19;100.00;101868.31;5297729;28;20428;-73
2023/09/27 02:38:49;;;;;;;6.60;4.35;;;;;;;15.13;100.00;101863.53;5298572;28;20508;-73
2023/09/27 02:41:20;;;;;;;6.95;5.22;;;;;;;15.14;100.00;101875.75;5297370;28;20566;-73
2023/09/27 02:43:51;;;;;;;5.88;4.88;;;;;;;15.14;100.00;101869.66;5297089;28;20478;-71
2023/09/27 02:46:22;;;;;;;7.63;5.53;;;;;;;15.05;100.00;101866.03;5298407;28;20020;-73
2023/09/27 02:48:54;;;;;;;6.95;4.93;;;;;;;14.98;100.00;101860.44;5298578;28;20020;-73
2023/09/27 02:51:25;;;;;;;7.03;4.68;;;;;;;14.96;100.00;101865.00;5297596;28;20031;-72
2023/09/27 02:53:56;;;;;;;5.95;4.90;;;;;;;14.95;100.00;101865.97;5296449;28;20115;-71
2023/09/27 02:56:27;;;;;;;6.82;4.90;;;;;;;14.90;100.00;101864.72;5297681;28;20089;-73
2023/09/27 02:58:59;;;;;;;8.98;5.70;;;;;;;14.91;100.00;101869.03;5296882;28;20039;-73
2023/09/27 03:01:30;;;;;;;7.93;4.95;;;;;;;14.90;100.00;101862.09;5297513;28;20228;-73
2023/09/27 03:04:01;;;;;;;8.32;5.10;;;;;;;14.86;100.00;101860.69;5294905;28;20059;-72
2023/09/27 03:06:35;;;;;;;5.63;4.60;;;;;;;14.84;100.00;101853.72;5297559;28;20067;-73
2023/09/27 03:09:08;;;;;;;6.88;5.07;;;;;;;14.74;100.00;101857.31;5298321;28;20024;-72
2023/09/27 03:11:42;;;;;;;6.93;5.40;;;;;;;14.74;100.00;101855.50;5296594;28;20138;-73
2023/09/27 03:14:13;;;;;;;7.97;4.97;;;;;;;14.73;100.00;101861.72;5297111;28;20024;-72
2023/09/27 03:16:44;;;;;;;8.18;5.22;;;;;;;14.74;100.00;101863.41;5297369;28;20334;-72
2023/09/27 03:19:15;;;;;;;6.88;5.32;;;;;;;14.74;100.00;101855.50;5296722;28;20503;-73
2023/09/27 03:21:47;;;;;;;7.80;5.18;;;;;;;14.75;100.00;101858.97;5297188;28;20027;-72
2023/09/27 03:24:18;;;;;;;7.05;4.78;;;;;;;14.71;100.00;101861.03;5296907;28;20032;-72
2023/09/27 03:26:49;;;;;;;7.30;5.20;;;;;;;14.70;100.00;101872.56;5297061;28;20020;-72
2023/09/27 03:29:20;;;;;;;6.82;5.35;;;;;;;14.71;100.00;101873.41;5295411;28;20027;-72
2023/09/27 03:31:52;;;;;;;7.88;4.80;;;;;;;14.73;100.00;101879.34;5295659;28;20028;-72
2023/09/27 03:34:23;;;;;;;7.18;5.22;;;;;;;14.70;100.00;101877.84;5296885;28;20039;-72
2023/09/27 03:36:57;;;;;;;7.00;4.80;;;;;;;14.65;100.00;101882.66;5296683;28;20024;-72
2023/09/27 03:39:28;;;;;;;8.95;4.72;;;;;;;14.64;100.00;101885.44;5295652;28;21337;-72
2023/09/27 03:42:00;;;;;;;7.45;5.18;;;;;;;14.60;100.00;101893.59;5295762;28;20064;-72
2023/09/27 03:44:31;;;;;;;7.18;4.70;;;;;;;14.58;100.00;101889.41;5296851;28;20019;-72
2023/09/27 03:47:03;;;;;;;6.18;5.35;;;;;;;14.55;100.00;101881.78;5296735;28;20058;-72
2023/09/27 03:49:34;;;;;;;6.50;4.85;;;;;;;14.50;100.00;101871.59;5297215;28;20020;-72
2023/09/27 03:52:05;;;;;;;5.70;5.10;;;;;;;14.48;100.00;101857.72;5296847;28;20043;-72
2023/09/27 03:54:37;;;;;;;7.15;5.38;;;;;;;14.49;100.00;101858.53;5293923;28;20460;-72
2023/09/27 03:57:08;;;;;;;7.72;5.70;;;;;;;14.50;100.00;101863.69;5295658;28;20503;-72
2023/09/27 03:59:39;;;;;;;8.43;5.82;;;;;;;14.54;100.00;101869.56;5296134;28;20615;-72
2023/09/27 04:02:10;;;;;;;7.80;5.45;;;;;;;14.41;100.00;101859.19;5294389;28;20500;-72
2023/09/27 04:04:42;;;;;;;6.15;4.75;;;;;;;14.48;100.00;101888.53;5296349;28;20024;-72
2023/09/27 04:07:13;;;;;;;5.88;4.95;;;;;;;14.46;100.00;101891.25;5297055;28;20123;-72
2023/09/27 04:09:47;;;;;;;6.68;5.10;;;;;;;14.53;100.00;101892.44;5296368;28;20031;-72
2023/09/27 04:12:18;;;;;;;7.00;5.20;;;;;;;14.41;100.00;101905.81;5295020;28;20028;-72
2023/09/27 04:14:49;;;;;;;7.20;5.28;;;;;;;14.35;100.00;101900.06;5295424;28;20034;-72
2023/09/27 04:17:21;;;;;;;7.35;5.50;;;;;;;14.34;100.00;101895.78;5294955;28;20030;-72
2023/09/27 04:19:54;;;;;;;5.95;5.35;;;;;;;14.31;100.00;101884.66;5295092;28;20032;-72
2023/09/27 04:22:25;;;;;;;6.95;5.18;;;;;;;14.34;100.00;101887.88;5296380;28;20228;-72
2023/09/27 04:24:56;;;;;;;7.43;5.55;;;;;;;14.29;100.00;101899.78;5295268;28;20024;-72
2023/09/27 04:27:28;;;;;;;7.03;5.40;;;;;;;14.33;100.00;101909.94;5293808;28;20106;-72
2023/09/27 04:29:59;;;;;;;5.70;5.20;;;;;;;14.28;100.00;101914.75;5293803;28;20036;-72
2023/09/27 04:32:31;;;;;;;6.60;5.60;;;;;;;14.26;100.00;101915.84;5294408;28;20039;-72
2023/09/27 04:35:02;;;;;;;5.72;5.18;;;;;;;14.27;100.00;101915.69;5295964;28;20020;-72
2023/09/27 04:37:35;;;;;;;5.75;5.03;;;;;;;14.26;100.00;101918.47;5295472;28;20081;-72
2023/09/27 04:40:14;;;;;;;7.30;5.55;;;;;;;14.26;100.00;101926.38;5294231;28;20024;-72
2023/09/27 04:42:46;;;;;;;6.03;5.35;;;;;;;14.15;100.00;101916.72;5293878;28;20035;-72
2023/09/27 04:45:17;;;;;;;6.32;5.60;;;;;;;14.07;100.00;101903.34;5294328;28;20031;-72
2023/09/27 04:47:49;;;;;;;6.65;5.57;;;;;;;14.15;100.00;101892.19;5294411;28;20019;-72
2023/09/27 04:50:20;;;;;;;5.68;5.07;;;;;;;14.23;100.00;101876.56;5295667;28;20024;-72
2023/09/27 04:52:52;;;;;;;5.75;5.07;;;;;;;14.18;100.00;101895.41;5294374;28;20093;-72
2023/09/27 04:55:23;;;;;;;6.43;5.07;;;;;;;14.21;100.00;101907.50;5294719;28;20043;-72
2023/09/27 04:57:54;;;;;;;6.57;5.60;;;;;;;14.20;100.00;101905.78;5294479;28;20126;-72
2023/09/27 05:00:26;;;;;;;5.70;5.07;;;;;;;14.17;100.00;101906.91;5294995;28;20540;-72
2023/09/27 05:02:57;;;;;;;6.10;5.18;;;;;;;14.18;100.00;101905.09;5293976;28;20412;-72
2023/09/27 05:05:28;;;;;;;6.50;5.55;;;;;;;14.18;100.00;101905.09;5294004;28;20032;-72
2023/09/27 05:07:59;;;;;;;6.97;5.50;;;;;;;14.11;100.00;101902.13;5294939;28;20023;-72
2023/09/27 05:10:31;;;;;;;8.93;5.63;;;;;;;14.12;100.00;101907.25;5293480;28;20120;-72
2023/09/27 05:13:03;;;;;;;6.90;5.90;;;;;;;14.12;100.00;101901.16;5291084;28;20035;-72
2023/09/27 05:15:34;;;;;;;5.88;5.28;;;;;;;14.23;100.00;101880.03;5294762;28;20035;-72
2023/09/27 05:18:06;;;;;;;8.60;5.30;;;;;;;14.18;100.00;101884.03;5294110;28;20032;-72
2023/09/27 05:20:37;;;;;;;7.60;5.65;;;;;;;14.21;100.00;101884.59;5294324;28;20057;-72
2023/09/27 05:23:08;;;;;;;6.43;5.05;;;;;;;14.18;100.00;101884.84;5294142;28;20036;-72
2023/09/27 05:25:40;;;;;;;7.55;5.75;;;;;;;14.21;100.00;101873.22;5295445;28;20065;-72
2023/09/27 05:28:12;;;;;;;8.77;5.43;;;;;;;14.25;100.00;101877.28;5296323;28;20043;-72
2023/09/27 05:30:43;;;;;;;7.90;6.20;;;;;;;14.24;100.00;101878.22;5295253;28;20489;-72
2023/09/27 05:33:14;;;;;;;6.45;5.82;;;;;;;14.24;100.00;101888.75;5294922;28;20350;-72
2023/09/27 05:35:50;;;;;;;7.35;5.57;;;;;;;14.12;100.00;101870.38;5299158;28;20031;-72
2023/09/27 05:38:21;;;;;;;7.13;5.22;;;;;;;14.23;100.00;101890.56;5291312;28;20024;-72
2023/09/27 05:40:52;;;;;;;5.88;5.28;;;;;;;14.22;100.00;101890.72;5295941;28;20047;-72
2023/09/27 05:43:23;;;;;;;7.03;5.45;;;;;;;14.16;100.00;101893.84;5294613;28;20020;-74
2023/09/27 05:45:56;;;;;;;7.10;5.57;;;;;;;14.11;100.00;101881.06;5295447;28;20059;-72
2023/09/27 05:48:28;;;;;;;9.23;6.03;;;;;;;14.09;100.00;101881.19;5295608;28;20036;-72
2023/09/27 05:50:59;;;;;;;10.10;6.00;;;;;;;14.08;100.00;101876.03;5292745;28;20036;-72
2023/09/27 05:53:31;;;;;;;7.30;5.60;;;;;;;14.09;100.00;101868.03;5292898;28;20500;-72
2023/09/27 05:56:03;;;;;;;6.50;5.65;;;;;;;14.13;100.00;101863.31;5297444;28;20032;-72
2023/09/27 05:58:35;;;;;;;6.93;5.60;;;;;;;14.10;100.00;101864.41;5292177;28;20024;-72
2023/09/27 06:01:07;;;;;;;7.50;6.15;;;;;;;14.16;100.00;101864.84;5296024;28;20032;-72
2023/09/27 06:03:41;;;;;;;8.02;5.20;;;;;;;14.18;100.00;101865.56;5297608;28;20035;-72
2023/09/27 06:06:13;;;;;;;8.95;5.55;;;;;;;14.15;100.00;101864.03;5296644;28;20673;-74
2023/09/27 06:08:44;;;;;;;5.78;5.18;;;;;;;14.15;100.00;101864.03;5296943;28;20024;-74
2023/09/27 06:11:16;;;;;;;8.57;6.00;;;;;;;14.20;100.00;101861.81;5297437;28;20107;-74
2023/09/27 06:13:47;;;;;;;8.00;5.95;;;;;;;14.22;100.00;101861.72;5298287;28;20039;-73
2023/09/27 06:16:19;;;;;;;5.93;5.32;;;;;;;14.20;100.00;101861.00;5292584;28;20040;-73
2023/09/27 06:18:50;;;;;;;8.07;5.30;;;;;;;14.33;100.00;101867.75;5295839;28;20032;-73
2023/09/27 06:21:22;;;;;;;6.28;5.35;;;;;;;14.34;100.00;101858.88;5294071;28;20538;-74
2023/09/27 06:23:54;;;;;;;6.82;6.07;;;;;;;14.39;100.00;101857.63;5296518;28;20188;-73
2023/09/27 06:26:25;;;;;;;7.50;5.83;;;;;;;14.46;100.00;101853.53;5293345;28;20564;-74
2023/09/27 06:28:58;;;;;;;8.13;5.95;;;;;;;14.51;100.00;101846.09;5291897;28;20162;-73
2023/09/27 06:31:29;;;;;;;7.47;6.00;;;;;;;14.59;100.00;101849.75;5291200;28;20299;-74
2023/09/27 06:34:01;;;;;;;11.13;6.57;;;;;;;14.69;100.00;101847.13;5294793;28;20405;-73
2023/09/27 06:36:34;;;;;;;11.00;7.38;;;;;;;14.82;100.00;101847.75;5293021;28;20461;-74
2023/09/27 06:39:07;;;;;;;11.00;7.57;;;;;;;14.89;100.00;101845.44;5291560;28;20029;-73
2023/09/27 06:41:43;;;;;;;10.50;6.95;;;;;;;15.01;100.00;101848.78;5293380;28;20317;-73
2023/09/27 06:44:15;;;;;;;8.60;6.68;;;;;;;15.10;100.00;101850.63;5294771;28;20111;-73
2023/09/27 06:46:47;;;;;;;8.90;7.53;;;;;;;15.23;100.00;101850.38;5292338;28;20032;-73
2023/09/27 06:49:19;;;;;;;12.15;7.53;;;;;;;15.27;100.00;101860.53;5288711;28;20020;-73
2023/09/27 06:51:50;;;;;;;8.82;7.43;;;;;;;15.34;100.00;101871.34;5292407;28;20097;-74
2023/09/27 06:54:22;;;;;;;14.75;7.68;;;;;;;15.42;100.00;101875.97;5295076;28;20131;-73
2023/09/27 06:56:53;;;;;;;9.95;8.13;;;;;;;15.43;100.00;101880.28;5295927;28;20031;-73
2023/09/27 06:59:25;;;;;;;11.80;7.82;;;;;;;15.50;100.00;101873.50;5293315;28;20543;-74
2023/09/27 07:01:56;;;;;;;11.88;7.40;;;;;;;15.64;100.00;101874.88;5292312;28;20028;-73
2023/09/27 07:04:27;;;;;;;10.60;8.15;;;;;;;15.65;100.00;101860.72;5293105;28;20264;-73
2023/09/27 07:06:59;;;;;;;9.85;7.35;;;;;;;15.69;100.00;101855.06;5295545;28;20027;-73
2023/09/27 07:09:34;;;;;;;12.27;7.75;;;;;;;15.69;100.00;101849.75;5295112;28;20023;-74
2023/09/27 07:12:05;;;;;;;10.60;7.63;;;;;;;15.79;100.00;101855.88;5295218;28;20028;-73
2023/09/27 07:14:36;;;;;;;10.23;8.00;;;;;;;15.87;100.00;101855.16;5294984;28;20370;-73
2023/09/27 07:17:08;;;;;;;10.73;7.93;;;;;;;15.84;100.00;101867.84;5291989;28;20039;-73
2023/09/27 07:19:39;;;;;;;10.35;7.75;;;;;;;15.84;100.00;101867.84;5294608;28;20028;-73
2023/09/27 07:22:15;;;;;;;12.00;8.20;;;;;;;15.94;100.00;101873.94;5294750;28;20473;-73
2023/09/27 07:24:47;;;;;;;10.65;7.15;;;;;;;15.95;100.00;101870.34;5291568;28;20405;-74
2023/09/27 07:27:18;;;;;;;11.32;7.05;;;;;;;15.97;100.00;101874.50;5286121;28;20036;-73
2023/09/27 07:29:49;;;;;;;10.05;7.88;;;;;;;16.02;100.00;101869.66;5291084;28;20070;-73
2023/09/27 07:32:21;;;;;;;10.98;7.90;;;;;;;16.07;100.00;101871.03;5292529;28;20037;-74
2023/09/27 07:34:52;;;;;;;12.68;7.65;;;;;;;16.12;100.00;101882.00;5293253;28;20015;-73
2023/09/27 07:37:23;;;;;;;12.05;7.60;;;;;;;16.14;100.00;101887.97;5292583;28;20503;-73
2023/09/27 07:39:55;;;;;;;11.40;8.63;;;;;;;16.16;100.00;101876.28;5292828;28;20394;-73
2023/09/27 07:42:26;;;;;;;10.38;7.70;;;;;;;16.26;100.00;101878.94;5293446;28;20028;-73
2023/09/27 07:44:57;;;;;;;9.93;7.35;;;;;;;16.29;100.00;101876.00;5292610;28;20111;-73
2023/09/27 07:47:29;;;;;;;9.32;7.40;;;;;;;16.30;100.00;101861.81;5293795;28;20391;-73
2023/09/27 07:50:00;;;;;;;11.68;8.50;;;;;;;16.33;100.00;101858.03;5293945;28;20028;-73
2023/09/27 07:52:32;;;;;;;11.55;8.68;;;;;;;16.44;100.00;101879.88;5293195;28;20105;-74
2023/09/27 07:55:04;;;;;;;9.93;7.70;;;;;;;16.53;100.00;101891.41;5293793;28;20797;-73
2023/09/27 07:57:36;;;;;;;9.95;8.23;;;;;;;16.59;100.00;101879.38;5293594;28;20059;-72
2023/09/27 08:00:10;;;;;;;10.35;8.45;;;;;;;16.61;100.00;101883.56;5294106;28;20177;-72
2023/09/27 08:02:45;;;;;;;13.38;8.15;;;;;;;16.72;100.00;101891.34;5292995;28;20213;-72
2023/09/27 08:05:17;;;;;;;10.93;8.25;;;;;;;16.81;100.00;101887.00;5294345;28;20028;-72
2023/09/27 08:07:49;;;;;;;9.45;8.05;;;;;;;16.82;100.00;101883.41;5294110;28;20180;-73
2023/09/27 08:10:21;;;;;;;9.90;8.13;;;;;;;17.07;100.00;101891.63;5293530;28;20028;-72
2023/09/27 08:12:52;;;;;;;9.75;8.10;;;;;;;17.09;100.00;101887.03;5294585;28;20458;-72
2023/09/27 08:15:23;;;;;;;9.70;8.13;;;;;;;17.17;100.00;101881.84;5292062;28;20023;-73
2023/09/27 08:17:57;;;;;;;12.05;7.60;;;;;;;17.29;100.00;101888.59;5294064;28;20051;-75
2023/09/27 08:20:28;;;;;;;10.90;7.82;;;;;;;17.38;100.00;101894.81;5292751;28;20453;-73
2023/09/27 08:22:59;;;;;;;12.65;8.52;;;;;;;17.45;100.00;101906.47;5292774;28;20077;-73
2023/09/27 08:25:31;;;;;;;9.07;8.18;;;;;;;17.55;100.00;101915.22;5293952;28;20051;-75
2023/09/27 08:28:03;;;;;;;13.32;9.13;;;;;;;17.61;100.00;101898.69;5291043;28;20126;-76
2023/09/27 08:30:34;;;;;;;15.40;8.85;;;;;;;17.72;100.00;101902.94;5291094;28;20569;-73
2023/09/27 08:33:06;;;;;;;9.77;8.27;;;;;;;17.84;100.00;101896.47;5292573;28;20108;-76
2023/09/27 08:35:37;;;;;;;13.85;8.82;;;;;;;17.97;100.00;101907.53;5291111;28;20042;-74
2023/09/27 08:38:09;;;;;;;11.10;8.55;;;;;;;18.08;100.00;101910.94;5290992;28;20032;-77
2023/09/27 08:40:42;;;;;;;11.98;8.43;;;;;;;18.27;100.00;101912.56;5291073;28;20312;-74
2023/09/27 08:43:16;;;;;;;12.73;8.43;;;;;;;18.52;100.00;101911.72;5283862;28;20103;-76
2023/09/27 08:45:51;;;;;;;11.60;8.45;;;;;;;18.56;100.00;101888.38;5267396;28;20032;-75
2023/09/27 08:48:24;;;;;;;10.50;8.02;;;;;;;18.31;100.00;101848.44;5270209;28;20431;-74
2023/09/27 08:50:55;;;;;;;10.80;8.25;;;;;;;18.83;100.00;101895.38;5270174;28;20097;-74
2023/09/27 08:53:27;;;;;;;10.60;7.63;;;;;;;18.97;100.00;101892.09;5268256;28;20048;-74
2023/09/27 08:56:01;;;;;;;10.52;7.28;;;;;;;19.07;100.00;101886.66;5269506;28;20294;-74
2023/09/27 08:58:34;;;;;;;8.60;7.80;;;;;;;19.33;100.00;101894.56;5270613;28;20024;-76
2023/09/27 09:01:07;;;;;;;9.32;7.70;;;;;;;19.50;100.00;101884.78;5270785;28;20028;-74
2023/09/27 09:03:40;;;;;;;10.05;7.65;;;;;;;19.69;100.00;101888.00;5273055;28;20435;-77
2023/09/27 09:06:12;;;;;;;10.35;7.40;;;;;;;19.72;100.00;101888.69;5273334;28;20157;-72
2023/09/27 09:08:46;;;;;;;9.85;7.45;;;;;;;19.76;100.00;101877.53;5271274;28;20046;-72
2023/09/27 09:11:18;;;;;;;10.73;7.25;;;;;;;19.87;100.00;101882.53;5271555;28;20086;-73
2023/09/27 09:13:56;;;;;;;10.23;6.43;;;;;;;20.04;100.00;101883.38;5271755;28;20615;-72
2023/09/27 09:16:27;;;;;;;9.15;6.38;;;;;;;20.04;100.00;101875.41;5270214;28;20032;-73
2023/09/27 09:19:16;;;;;;;8.73;6.10;;;;;;;20.42;100.00;101883.66;5270442;28;20039;-73
2023/09/27 09:21:58;;;;;;;8.18;5.75;;;;;;;20.38;100.00;101877.00;5271454;28;20032;-76
2023/09/27 09:24:31;;;;;;;6.50;5.00;;;;;;;20.22;100.00;101869.03;5271632;28;20036;-73
2023/09/27 09:27:07;;;;;;;7.05;5.68;;;;;;;20.39;100.00;101879.50;5270993;28;20032;-73
2023/09/27 09:29:49;;;;;;;7.43;5.20;;;;;;;20.64;100.00;101872.28;5269744;28;20025;-76
2023/09/27 09:32:22;;;;;;;7.80;6.18;;;;;;;20.51;100.00;101877.34;5270744;28;20501;-73
2023/09/27 09:34:54;;;;;;;;;;;;;;;21.21;100.00;101870.41;5272147;28;20489;-73
2023/09/27 09:37:29;;;;;;;6.53;5.68;;;;;;;20.52;100.00;101871.00;5271408;28;19918;-73
2023/09/27 09:40:15;;;;;;;7.53;6.20;;;;;;;20.69;100.00;101869.16;5271841;28;20070;-74
2023/09/27 09:42:48;;;;;;;8.07;5.38;;;;;;;20.71;100.00;101848.47;5272916;28;20021;-73
2023/09/27 09:45:20;;;;;;;7.97;5.68;;;;;;;20.80;100.00;101855.47;5270627;28;20310;-74
2023/09/27 09:47:52;;;;;;;7.28;5.55;;;;;;;20.93;100.00;101851.41;5270032;28;20024;-73
2023/09/27 09:50:23;;;;;;;7.63;6.60;;;;;;;21.02;100.00;101845.00;5271565;28;20039;-73
2023/09/27 09:52:57;;;;;;;7.97;6.10;;;;;;;21.10;100.00;101842.31;5271592;28;20494;-73
2023/09/27 09:55:34;;;;;;;8.25;6.30;;;;;;;21.27;100.00;101827.06;5268904;28;20916;-74
2023/09/27 09:58:31;;;;;;;6.57;5.55;;;;;;;21.53;100.00;101832.91;5269561;28;20510;-73
2023/09/27 10:01:03;;;;;;;6.75;6.05;;;;;;;21.62;100.00;101836.34;5271056;28;20173;-74
2023/09/27 10:03:35;;;;;;;;;;;;;;;22.40;100.00;101831.63;5269902;28;20024;-73
2023/09/27 10:06:08;;;;;;;7.53;6.43;;;;;;;21.84;100.00;101821.31;5271766;28;20038;-73
2023/09/27 10:08:40;;;;;;;9.05;6.75;;;;;;;21.82;100.00;101818.84;5270137;28;20779;-73
2023/09/27 10:11:12;;;;;;;6.87;6.03;;;;;;;21.96;100.00;101830.53;5269176;28;20025;-73
2023/09/27 10:13:44;;;;;;;7.07;6.37;;;;;;;21.93;100.00;101832.72;5269867;28;20492;-75
2023/09/27 10:16:18;;;;;;;8.52;6.78;;;;;;;22.07;100.00;101840.78;5275881;28;20037;-76
2023/09/27 10:18:53;;;;;;;9.27;6.05;;;;;;;22.03;100.00;101847.47;5273759;28;20036;-75
2023/09/27 10:21:24;;;;;;;8.02;6.30;;;;;;;22.15;100.00;101839.88;5273604;28;20031;-74
2023/09/27 10:23:58;;;;;;;8.30;6.33;;;;;;;22.32;100.00;101828.03;5271924;28;20242;-74
2023/09/27 10:26:31;;;;;;;7.60;6.38;;;;;;;22.53;100.00;101821.94;5273016;28;20032;-75
2023/09/27 10:29:03;;;;;;;6.38;5.47;;;;;;;22.51;100.00;101807.97;5272622;28;20031;-74
2023/09/27 10:32:08;;;;;;;6.53;5.57;;;;;;;22.56;100.00;101799.41;5275075;28;20393;-77
2023/09/27 10:34:41;;;;;;;7.25;5.68;;;;;;;22.62;100.00;101814.69;5247895;28;20501;-75
2023/09/27 10:37:12;;;;;;;;;;;;;;;23.38;100.00;101812.47;5279388;28;20139;-76
2023/09/27 10:40:19;;;;;;;8.38;6.15;;;;;;;23.05;100.00;101806.78;5272897;28;19927;-75
2023/09/27 10:42:51;;;;;;;8.43;6.10;;;;;;;22.79;100.00;101804.59;5271530;28;20032;-76
2023/09/27 10:45:22;;;;;;;8.45;6.10;;;;;;;22.82;100.00;101789.03;5275737;28;20072;-75
2023/09/27 10:47:57;;;;;;;9.33;5.70;;;;;;;22.99;100.00;101796.84;5278039;28;20040;-74
2023/09/27 10:50:29;;;;;;;8.73;6.28;;;;;;;22.98;98.80;101788.00;5278022;28;20037;-75
2023/09/27 10:53:00;;;;;;;7.47;5.82;;;;;;;23.15;100.00;101775.25;5275205;28;20072;-75
2023/09/27 10:55:39;;;;;;;9.27;5.77;;;;;;;23.38;100.00;101767.03;5276542;28;20655;-75
2023/09/27 10:58:12;;;;;;;7.72;5.55;;;;;;;23.25;100.00;101769.56;5274629;28;20032;-75
2023/09/27 11:00:51;;;;;;;6.80;5.20;;;;;;;23.58;98.06;101772.53;5275212;28;20032;-75
2023/09/27 11:03:29;;;;;;;9.77;5.82;;;;;;;23.51;94.69;101777.81;5274831;28;20035;-76
2023/09/27 11:06:13;;;;;;;8.50;5.35;;;;;;;23.75;93.64;101771.28;5274814;28;20035;-75
2023/09/27 11:08:45;;;;;;;6.43;4.70;;;;;;;23.54;95.73;101761.38;5273548;28;20535;-75
2023/09/27 11:11:16;;;;;;;6.90;5.03;;;;;;;23.63;95.00;101754.03;5275951;28;20074;-76
2023/09/27 11:13:48;;;;;;;8.10;4.90;;;;;;;23.61;95.63;101760.63;5279275;28;20039;-77
2023/09/27 11:16:19;;;;;;;5.47;4.47;;;;;;;23.51;97.47;101756.41;5272614;28;20512;-77
2023/09/27 11:18:51;;;;;;;7.83;5.03;;;;;;;23.39;93.18;101749.13;5272844;28;20032;-76
2023/09/27 11:21:25;;;;;;;6.57;4.30;;;;;;;23.40;91.36;101742.75;5275289;28;20028;-75
2023/09/27 11:24:00;;;;;;;7.05;4.32;;;;;;;23.31;92.43;101740.22;5273300;28;20109;-75
2023/09/27 11:26:33;;;;;;;6.07;4.32;;;;;;;23.38;94.10;101734.94;5273602;28;20024;-77
2023/09/27 11:29:07;;;;;;;7.18;4.07;;;;;;;23.60;96.07;101734.88;5272856;28;20033;-76
2023/09/27 11:31:38;;;;;;;8.52;5.00;;;;;;;23.59;87.79;101735.91;5272727;28;20037;-75
2023/09/27 11:34:17;;;;;;;5.67;4.10;;;;;;;23.86;85.88;101719.03;5272883;28;20493;-75
2023/09/27 11:36:53;;;;;;;6.07;4.65;;;;;;;23.90;85.97;101714.13;5272684;28;20295;-77
2023/09/27 11:39:45;;;;;;;7.90;3.95;;;;;;;24.01;90.76;101718.91;5271294;28;20085;-78
2023/09/27 11:42:25;;;;;;;5.30;3.80;;;;;;;24.01;89.96;101702.84;5270719;28;20036;-75